Talla Bena, Louisiana
Current Conditions -  °F | °C
As of 7:53 AM on Saturday 22 Nov 2014 (Local Time) from KTVR Reporting Station
Few Clouds Few Clouds  
Wind Chill: 56°   Ceiling: Unl
Heat Index: 56°   Visibility: 10mi
Dew Point: 46°   Wind: 5mph
Humidity: 69%   Direction: 130°SE
Pressure: 30.25"   Gusts: NA
Location:  32.5752°N, 91.2825°W
Report Text: KTVR 221353Z AUTO 13004KT 10SM FEW120 13/08 A3025 RMK AO2 SLP251 T01330078
Loading
Personal Weather Stations






























Interactive Weather Map New forecast layout! Learn more

10-Day Weather Forecast

Advertisements
Track Severe Weather on mobile